Time;durP1;ratioP1;P1;durP2;ratioP2;P2;SDS_P1;SDS_P2;PMS_P1;PMS_P2;Temp;Humidity;BMP_temperature;BMP_pressure;BME280_temperature;BME280_humidity;BME280_pressure;Samples;Min_cycle;Max_cycle;Signal;HPM_P1;HPM_P2
2021/03/28 00:00:22;;;;;;;5.57;3.13;;;;;;;26.53;19.68;99123.06;5100388;28;20100;-89
2021/03/28 00:03:00;;;;;;;7.15;3.95;;;;;;;26.59;19.33;99112.91;5085539;28;20031;-89
2021/03/28 00:05:30;;;;;;;4.95;3.22;;;;;;;26.89;18.90;99109.19;5100264;28;20028;-88
2021/03/28 00:08:15;;;;;;;5.65;3.67;;;;;;;26.91;18.90;99089.84;5101975;28;20498;-89
2021/03/28 00:10:45;;;;;;;4.60;3.30;;;;;;;27.04;18.51;99095.66;5085196;28;20054;-88
2021/03/28 00:13:22;;;;;;;6.43;3.65;;;;;;;27.19;18.31;99105.47;5089434;28;20051;-88
2021/03/28 00:15:58;;;;;;;5.10;3.40;;;;;;;27.19;18.27;99111.88;5044374;28;20123;-88
2021/03/28 00:18:48;;;;;;;5.00;3.30;;;;;;;27.22;18.44;99110.22;5081328;28;20043;-89
2021/03/28 00:21:33;;;;;;;4.78;3.35;;;;;;;26.56;19.33;99110.91;5076754;28;20035;-90
2021/03/28 00:24:31;;;;;;;4.32;2.65;;;;;;;26.36;19.48;99110.03;5084502;28;20039;-89
2021/03/28 00:27:17;;;;;;;4.32;3.35;;;;;;;26.26;19.57;99116.59;5045826;28;20032;-89
2021/03/28 00:30:14;;;;;;;4.97;3.22;;;;;;;26.04;20.26;99107.63;5050110;28;20116;-89
2021/03/28 00:32:51;;;;;;;5.78;3.85;;;;;;;25.91;19.89;99109.44;5083874;28;20052;-89
2021/03/28 00:35:21;;;;;;;4.60;2.78;;;;;;;25.86;19.76;99107.06;5077899;28;20032;-89
2021/03/28 00:38:15;;;;;;;5.18;3.53;;;;;;;25.97;19.71;99118.22;5071531;28;20032;-89
2021/03/28 00:40:42;;;;;;;6.57;2.97;;;;;;;26.33;19.29;99112.88;5084163;28;20036;-90
2021/03/28 00:43:20;;;;;;;5.13;3.35;;;;;;;26.16;19.63;99119.59;5076944;28;20394;-89
2021/03/28 00:45:56;;;;;;;4.68;3.38;;;;;;;25.97;19.79;99124.63;5076936;28;20035;-90
2021/03/28 00:48:28;;;;;;;4.88;3.45;;;;;;;25.36;20.49;99125.72;5081117;28;20036;-89
2021/03/28 00:51:19;;;;;;;4.55;2.95;;;;;;;25.10;20.78;99127.19;5076318;28;20031;-89
2021/03/28 00:53:55;;;;;;;5.90;3.70;;;;;;;25.07;20.69;99130.81;5061596;28;20104;-90
2021/03/28 00:56:42;;;;;;;4.85;3.53;;;;;;;25.35;20.58;99129.75;5084729;28;20286;-89
2021/03/28 00:59:31;;;;;;;4.97;3.17;;;;;;;25.68;20.10;99131.81;5077581;28;20036;-89
2021/03/28 01:02:26;;;;;;;4.95;3.35;;;;;;;26.01;19.76;99139.44;5078343;28;20111;-89
2021/03/28 01:05:02;;;;;;;3.78;3.05;;;;;;;25.80;20.19;99141.72;5071993;28;20033;-90
2021/03/28 01:07:28;;;;;;;4.85;3.13;;;;;;;25.83;20.03;99138.09;5076919;28;20036;-90
2021/03/28 01:10:35;;;;;;;3.72;2.92;;;;;;;25.40;20.42;99140.53;5069440;28;20041;-90
2021/03/28 01:13:39;;;;;;;7.13;3.50;;;;;;;25.42;20.56;99141.72;5101408;28;20441;-90
2021/03/28 01:16:35;;;;;;;5.63;3.38;;;;;;;25.52;20.29;99140.03;5107363;28;20495;-90
2021/03/28 01:19:16;;;;;;;5.70;3.35;;;;;;;24.66;21.50;99149.63;5096669;28;20043;-89
2021/03/28 01:22:18;;;;;;;5.95;3.58;;;;;;;24.47;21.84;99153.75;5104768;28;20061;-90
2021/03/28 01:24:50;;;;;;;5.45;3.30;;;;;;;25.04;21.12;99150.53;5067460;28;20119;-90
2021/03/28 01:27:44;;;;;;;4.03;2.75;;;;;;;25.27;20.68;99139.47;5108289;28;20028;-92
2021/03/28 01:30:12;;;;;;;7.95;4.78;;;;;;;23.91;22.75;99145.59;5083107;28;20126;-89
2021/03/28 01:32:58;;;;;;;5.00;3.28;;;;;;;24.63;21.63;99147.63;5095699;28;20042;-90
2021/03/28 01:35:45;;;;;;;6.72;3.63;;;;;;;25.23;20.65;99147.94;5103966;28;20106;-90
2021/03/28 01:38:16;;;;;;;8.45;4.95;;;;;;;25.16;20.71;99144.38;5093038;28;20035;-90
2021/03/28 01:40:49;;;;;;;;;;;;;;;25.14;21.08;99142.00;5080206;28;20745;-90
2021/03/28 01:43:38;;;;;;;7.20;4.05;;;;;;;23.57;22.02;99144.53;5098235;28;19971;-90
2021/03/28 01:46:30;;;;;;;5.35;3.60;;;;;;;22.66;23.20;99154.63;5105415;28;20036;-90
2021/03/28 01:48:59;;;;;;;6.13;3.08;;;;;;;22.94;23.03;99162.22;5076915;28;20507;-91
2021/03/28 01:51:34;;;;;;;6.85;4.03;;;;;;;23.09;22.73;99150.59;5082919;28;20030;-90
2021/03/28 01:54:20;;;;;;;9.45;5.80;;;;;;;20.86;25.94;99150.13;5102216;28;20043;-90
2021/03/28 01:57:14;;;;;;;9.40;6.72;;;;;;;18.15;29.65;99164.63;5085433;28;20112;-90
2021/03/28 02:00:06;;;;;;;9.82;6.03;;;;;;;18.33;29.76;99160.19;5084777;28;20122;-89
2021/03/28 02:02:51;;;;;;;6.30;4.85;;;;;;;21.27;25.40;99160.81;5101243;28;20032;-89
2021/03/28 02:05:41;;;;;;;9.48;4.32;;;;;;;22.89;22.47;99154.22;5101086;28;20059;-90
2021/03/28 02:08:16;;;;;;;5.53;3.15;;;;;;;23.37;21.25;99146.97;5109631;28;20028;-90
2021/03/28 02:11:01;;;;;;;6.30;3.78;;;;;;;24.27;20.35;99138.63;5101706;28;20085;-90
2021/03/28 02:13:46;;;;;;;7.30;3.70;;;;;;;24.48;20.15;99141.28;5097971;28;20127;-90
2021/03/28 02:16:32;;;;;;;5.30;3.67;;;;;;;25.19;19.42;99144.38;5090297;28;20441;-89
2021/03/28 02:19:18;;;;;;;4.53;3.35;;;;;;;25.56;19.33;99152.03;5090396;28;20509;-89
2021/03/28 02:22:16;;;;;;;7.75;3.58;;;;;;;25.19;19.43;99149.19;5085601;28;20043;-89
2021/03/28 02:25:06;;;;;;;5.70;3.67;;;;;;;25.31;19.38;99157.91;5083443;28;20047;-89
2021/03/28 02:27:45;;;;;;;5.78;3.42;;;;;;;25.80;18.96;99169.88;5071306;28;20051;-89
2021/03/28 02:30:23;;;;;;;6.80;2.95;;;;;;;26.20;18.80;99179.44;5087763;28;20384;-90
2021/03/28 02:33:06;;;;;;;8.25;5.47;;;;;;;25.54;19.65;99187.44;5089245;28;20048;-89
2021/03/28 02:35:57;;;;;;;6.35;4.35;;;;;;;25.05;19.95;99189.47;5087534;28;20028;-89
2021/03/28 02:38:26;;;;;;;6.43;4.70;;;;;;;24.43;20.16;99192.28;5082442;28;20043;-88
2021/03/28 02:41:15;;;;;;;4.25;2.95;;;;;;;22.13;23.13;99196.41;5086499;28;20071;-89
2021/03/28 02:43:49;;;;;;;4.97;2.42;;;;;;;22.71;22.16;99201.78;5092551;28;20570;-88
2021/03/28 02:46:36;;;;;;;4.82;2.72;;;;;;;22.87;22.05;99199.41;5076124;28;20035;-88
2021/03/28 02:49:07;;;;;;;3.90;2.42;;;;;;;23.27;21.82;99199.00;5091859;28;20020;-89
2021/03/28 02:51:52;;;;;;;;;;;;;;;23.86;21.15;99202.94;5088017;28;20089;-88
2021/03/28 02:54:50;;;;;;;4.28;2.50;;;;;;;24.10;20.54;99200.47;5074516;28;20394;-88
2021/03/28 02:57:50;;;;;;;2.95;2.00;;;;;;;23.45;21.13;99204.63;5091323;28;20059;-88
2021/03/28 03:00:43;;;;;;;4.15;2.35;;;;;;;23.86;20.76;99213.34;5088868;28;20459;-88
2021/03/28 03:03:38;;;;;;;4.97;1.90;;;;;;;24.27;20.26;99219.25;5083887;28;20039;-88
2021/03/28 03:06:41;;;;;;;4.85;3.28;;;;;;;23.51;20.98;99221.84;5084913;28;20024;-88
2021/03/28 03:09:28;;;;;;;3.58;2.50;;;;;;;21.84;23.28;99225.47;5085872;28;20024;-89
2021/03/28 03:12:22;;;;;;;6.32;3.42;;;;;;;20.74;24.26;99220.97;5098399;28;20062;-88
2021/03/28 03:15:06;;;;;;;5.25;2.47;;;;;;;20.54;24.59;99228.75;5099451;28;20483;-89
2021/03/28 03:18:12;;;;;;;4.15;2.58;;;;;;;21.27;23.80;99238.22;5090118;28;20016;-88
2021/03/28 03:21:15;;;;;;;4.40;1.95;;;;;;;22.46;22.36;99235.31;5088269;28;20036;-88
2021/03/28 03:24:24;;;;;;;3.88;1.77;;;;;;;22.28;22.53;99242.03;5053856;28;20119;-88
2021/03/28 03:27:18;;;;;;;2.60;2.10;;;;;;;22.79;21.99;99247.41;5091883;28;20146;-88
2021/03/28 03:30:12;;;;;;;5.38;2.25;;;;;;;22.85;21.67;99252.22;5090969;28;20023;-88
2021/03/28 03:33:03;;;;;;;5.40;2.35;;;;;;;21.41;23.37;99257.88;5074823;28;20119;-88
2021/03/28 03:35:51;;;;;;;3.80;2.05;;;;;;;21.39;23.53;99259.47;5084284;28;20114;-89
2021/03/28 03:38:45;;;;;;;4.88;2.17;;;;;;;20.35;24.80;99258.81;5085665;28;20043;-88
2021/03/28 03:41:21;;;;;;;3.70;2.50;;;;;;;19.70;25.68;99267.47;5093093;28;20046;-88
2021/03/28 03:44:19;;;;;;;4.53;2.50;;;;;;;19.94;25.54;99267.03;5099208;28;20024;-88
2021/03/28 03:46:51;;;;;;;6.03;2.65;;;;;;;19.19;26.29;99261.47;5096240;28;20028;-89
2021/03/28 03:49:48;;;;;;;8.02;3.47;;;;;;;19.71;25.62;99273.88;5100972;28;20027;-89
2021/03/28 03:52:19;;;;;;;7.13;2.85;;;;;;;20.00;25.04;99279.44;5090675;28;20033;-88
2021/03/28 03:54:57;;;;;;;4.43;2.38;;;;;;;20.56;24.24;99273.81;5075223;28;20476;-89
2021/03/28 03:57:43;;;;;;;3.55;2.20;;;;;;;21.30;23.22;99277.38;5087296;28;20036;-88
2021/03/28 04:00:21;;;;;;;5.45;2.67;;;;;;;20.15;24.14;99271.28;5105031;28;20032;-89
2021/03/28 04:02:54;;;;;;;5.38;2.53;;;;;;;20.50;23.79;99283.72;5084762;28;20032;-88
2021/03/28 04:05:54;;;;;;;4.82;2.38;;;;;;;21.41;22.45;99287.81;5098681;28;20032;-88
2021/03/28 04:08:38;;;;;;;4.38;1.88;;;;;;;21.25;22.34;99296.47;5104041;28;20134;-88
2021/03/28 04:11:38;;;;;;;4.07;1.98;;;;;;;21.01;22.44;99297.00;5100683;28;20108;-87
2021/03/28 04:14:36;;;;;;;6.63;2.47;;;;;;;21.08;22.31;99297.09;5059228;28;20048;-88
2021/03/28 04:17:17;;;;;;;5.47;2.63;;;;;;;21.25;21.97;99308.44;5052258;28;20037;-88
2021/03/28 04:19:43;;;;;;;4.40;1.98;;;;;;;21.08;22.24;99313.84;5064107;28;20471;-88
2021/03/28 04:22:41;;;;;;;5.15;1.83;;;;;;;20.74;22.64;99313.09;5063068;28;20446;-88
2021/03/28 04:25:22;;;;;;;3.42;1.27;;;;;;;21.05;22.11;99321.00;5005735;28;20110;-88
2021/03/28 04:28:14;;;;;;;3.22;1.58;;;;;;;21.68;21.25;99317.19;5060047;28;20041;-88
2021/03/28 04:30:55;;;;;;;9.30;2.25;;;;;;;21.93;21.02;99324.59;5067360;28;20040;-88
2021/03/28 04:33:33;;;;;;;3.78;1.48;;;;;;;22.40;20.33;99322.84;5052688;28;20032;-87
2021/03/28 04:36:22;;;;;;;2.50;1.20;;;;;;;22.63;19.85;99326.97;5061026;28;20048;-88
2021/03/28 04:39:16;;;;;;;2.95;1.30;;;;;;;23.06;19.64;99333.47;5060157;28;20032;-87
2021/03/28 04:41:45;;;;;;;3.92;2.00;;;;;;;22.47;20.42;99337.69;5064934;28;20047;-87
2021/03/28 04:44:36;;;;;;;5.28;1.98;;;;;;;22.29;20.76;99341.56;5057031;28;20104;-88
2021/03/28 04:47:18;;;;;;;3.85;2.83;;;;;;;21.96;21.09;99337.75;5068557;28;20040;-88
2021/03/28 04:50:02;;;;;;;4.93;1.77;;;;;;;22.10;20.96;99347.47;5040357;28;20495;-88
2021/03/28 04:52:59;;;;;;;4.93;1.77;;;;;;;22.51;20.46;99346.88;5056078;28;20493;-88
2021/03/28 04:55:43;;;;;;;4.18;2.05;;;;;;;22.96;19.94;99350.28;5056761;28;20064;-89
2021/03/28 04:58:45;;;;;;;4.60;2.22;;;;;;;23.06;19.85;99344.69;5060028;28;20040;-89
2021/03/28 05:01:31;;;;;;;4.07;1.73;;;;;;;23.33;19.62;99359.97;5058714;28;20028;-88
2021/03/28 05:04:45;;;;;;;3.70;2.03;;;;;;;23.58;19.36;99365.63;5063460;28;20028;-89
2021/03/28 05:07:48;;;;;;;3.22;1.55;;;;;;;23.65;19.44;99365.63;5024267;28;20412;-89
2021/03/28 05:10:29;;;;;;;2.47;1.77;;;;;;;23.91;19.52;99367.22;5059962;28;20097;-89
2021/03/28 05:13:22;;;;;;;3.88;2.05;;;;;;;23.85;19.66;99372.41;5077801;28;20052;-89
2021/03/28 05:16:06;;;;;;;3.65;1.83;;;;;;;23.78;19.82;99371.63;5086780;28;20032;-89
2021/03/28 05:19:09;;;;;;;2.88;1.85;;;;;;;23.49;20.09;99370.81;5093821;28;20028;-89
2021/03/28 05:21:45;;;;;;;3.60;1.85;;;;;;;23.97;19.95;99374.81;5090708;28;20036;-89
2021/03/28 05:24:23;;;;;;;4.05;2.30;;;;;;;23.56;20.08;99370.81;5089215;28;20032;-89
2021/03/28 05:26:55;;;;;;;5.82;2.47;;;;;;;24.24;19.60;99375.22;5087191;28;20047;-88
2021/03/28 05:29:58;;;;;;;6.07;3.10;;;;;;;24.59;19.20;99377.13;5092966;28;20455;-88
2021/03/28 05:32:44;;;;;;;6.05;2.60;;;;;;;25.04;18.78;99383.78;5092278;28;20036;-88
2021/03/28 05:35:28;;;;;;;4.85;2.67;;;;;;;25.47;18.38;99371.09;5092082;28;20051;-88
2021/03/28 05:38:32;;;;;;;7.00;2.85;;;;;;;25.63;18.17;99379.00;5072519;28;20488;-88
2021/03/28 05:41:17;;;;;;;6.47;2.90;;;;;;;24.95;18.58;99391.88;5078730;28;20399;-88
2021/03/28 05:44:07;;;;;;;4.65;2.65;;;;;;;24.93;18.98;99392.25;5093248;28;20078;-88
2021/03/28 05:46:42;;;;;;;4.90;3.07;;;;;;;25.01;18.97;99393.84;5070107;28;20477;-88
2021/03/28 05:49:25;;;;;;;8.57;3.92;;;;;;;24.31;19.50;99392.03;5090554;28;20386;-88
2021/03/28 05:52:28;;;;;;;4.43;2.60;;;;;;;23.46;20.50;99394.03;5092262;28;20186;-88
2021/03/28 05:55:25;;;;;;;6.47;3.03;;;;;;;23.19;21.02;99401.16;5081732;28;20506;-88
2021/03/28 05:58:34;;;;;;;5.80;2.70;;;;;;;23.48;20.65;99397.22;5091176;28;20159;-88
2021/03/28 06:01:13;;;;;;;5.28;2.88;;;;;;;23.45;20.53;99394.44;5091986;28;20111;-88
2021/03/28 06:04:04;;;;;;;9.00;4.15;;;;;;;23.69;20.46;99411.28;5088969;28;20503;-89
2021/03/28 06:06:52;;;;;;;5.95;2.80;;;;;;;22.62;21.87;99414.94;5089015;28;20036;-89
2021/03/28 06:09:43;;;;;;;7.93;3.25;;;;;;;22.28;22.00;99419.13;5091473;28;20161;-88
2021/03/28 06:12:37;;;;;;;5.93;3.05;;;;;;;22.50;21.79;99423.63;5089517;28;20044;-89
2021/03/28 06:15:28;;;;;;;5.30;2.90;;;;;;;22.41;21.98;99419.56;5090354;28;20153;-88
2021/03/28 06:18:30;;;;;;;5.25;3.47;;;;;;;22.64;21.83;99429.34;5088636;28;20028;-89
2021/03/28 06:21:01;;;;;;;6.38;3.05;;;;;;;23.39;21.02;99433.25;5089355;28;20480;-92
2021/03/28 06:23:33;;;;;;;5.88;3.05;;;;;;;22.08;22.68;99439.34;5093026;28;20399;-90
2021/03/28 06:26:28;;;;;;;4.13;2.13;;;;;;;22.71;21.65;99439.78;5092444;28;20032;-90
2021/03/28 06:29:19;;;;;;;4.22;2.90;;;;;;;23.32;20.98;99442.44;5086814;28;20636;-90
2021/03/28 06:32:06;;;;;;;5.72;2.92;;;;;;;22.89;20.99;99442.69;5086253;28;20095;-89
2021/03/28 06:35:19;;;;;;;4.63;2.80;;;;;;;23.15;20.99;99456.41;5091656;28;20510;-90
2021/03/28 06:38:10;;;;;;;4.70;2.63;;;;;;;24.10;19.93;99453.00;5088110;28;20036;-89
2021/03/28 06:40:54;;;;;;;3.63;2.10;;;;;;;24.40;19.69;99459.78;5089593;28;20111;-90
2021/03/28 06:43:59;;;;;;;5.97;2.25;;;;;;;24.50;19.61;99466.59;5075093;28;20055;-90
2021/03/28 06:47:01;;;;;;;4.78;3.05;;;;;;;24.34;19.64;99452.97;5088856;28;20024;-90
2021/03/28 06:49:30;;;;;;;;;;;;;;;24.00;19.91;99458.19;5091399;28;20024;-90
2021/03/28 06:52:21;;;;;;;5.68;2.67;;;;;;;24.13;19.72;99464.25;5079097;28;20356;-90
2021/03/28 06:55:04;;;;;;;4.68;2.35;;;;;;;24.98;19.41;99464.91;5068691;28;20083;-90
2021/03/28 06:58:14;;;;;;;3.47;2.45;;;;;;;25.28;19.15;99462.34;5081798;28;20068;-89
2021/03/28 07:01:01;;;;;;;4.75;2.25;;;;;;;26.30;18.49;99452.44;5072699;28;20114;-90
2021/03/28 07:04:03;;;;;;;4.60;2.35;;;;;;;25.94;18.83;99451.13;5078962;28;20036;-90
2021/03/28 07:06:51;;;;;;;3.33;2.03;;;;;;;26.13;19.04;99459.03;5075638;28;20035;-90
2021/03/28 07:09:38;;;;;;;3.40;2.38;;;;;;;26.22;18.20;99470.63;5076466;28;20442;-90
2021/03/28 07:12:41;;;;;;;3.72;2.75;;;;;;;25.95;18.65;99464.00;5062475;28;20048;-89
2021/03/28 07:15:10;;;;;;;6.60;2.92;;;;;;;26.51;18.76;99459.91;5078055;28;20039;-91
2021/03/28 07:18:10;;;;;;;4.97;2.33;;;;;;;26.55;18.79;99467.09;5081808;28;20028;-90
2021/03/28 07:20:42;;;;;;;4.63;2.60;;;;;;;27.09;17.93;99458.88;5078713;28;20040;-93
2021/03/28 07:23:43;;;;;;;4.35;3.13;;;;;;;25.20;19.38;99469.22;5085474;28;20028;-89
2021/03/28 07:26:17;;;;;;;4.13;2.70;;;;;;;24.85;20.60;99476.97;5088241;28;20089;-90
2021/03/28 07:29:21;;;;;;;4.43;2.90;;;;;;;23.84;20.63;99479.41;5084454;28;20028;-89
2021/03/28 07:32:38;;;;;;;6.38;3.88;;;;;;;22.01;21.89;99479.22;5084894;28;20040;-89
2021/03/28 07:35:19;;;;;;;3.65;2.78;;;;;;;22.80;21.75;99478.63;5035701;28;20059;-89
2021/03/28 07:38:20;;;;;;;8.50;3.58;;;;;;;22.32;21.01;99489.06;5084689;28;20028;-89
2021/03/28 07:41:17;;;;;;;4.47;2.70;;;;;;;20.64;22.81;99495.16;5090440;28;20033;-89
2021/03/28 07:43:58;;;;;;;3.50;2.33;;;;;;;19.76;23.84;99494.50;5084253;28;20032;-88
2021/03/28 07:46:54;;;;;;;5.88;3.53;;;;;;;18.78;24.04;99489.69;5094196;28;20063;-89
2021/03/28 07:49:48;;;;;;;4.85;3.10;;;;;;;19.96;23.62;99512.75;5079367;28;20044;-87
2021/03/28 07:52:48;;;;;;;4.28;3.20;;;;;;;19.61;23.86;99498.19;5081206;28;20115;-89
2021/03/28 07:55:25;;;;;;;3.92;2.65;;;;;;;20.36;22.95;99503.91;5085424;28;20044;-89
2021/03/28 07:58:22;;;;;;;4.45;3.90;;;;;;;20.58;21.85;99499.44;5089843;28;20442;-89
2021/03/28 08:01:05;;;;;;;3.95;2.70;;;;;;;19.81;23.46;99505.31;5079385;28;20020;-89
2021/03/28 08:03:56;;;;;;;7.32;4.10;;;;;;;18.95;24.29;99495.63;5093759;28;20027;-89
2021/03/28 08:06:41;;;;;;;8.10;4.95;;;;;;;18.76;24.51;99506.75;5086169;28;20032;-89
2021/03/28 08:09:38;;;;;;;5.15;3.72;;;;;;;19.17;23.57;99505.25;5087449;28;20488;-89
2021/03/28 08:12:17;;;;;;;4.88;3.13;;;;;;;18.97;25.14;99526.72;5089907;28;20048;-89
2021/03/28 08:14:55;;;;;;;6.57;4.07;;;;;;;19.79;23.49;99521.59;5079155;28;20070;-89
2021/03/28 08:18:16;;;;;;;9.63;4.63;;;;;;;18.36;25.52;99525.66;5066360;28;20028;-89
2021/03/28 08:21:08;;;;;;;7.35;4.93;;;;;;;19.19;25.45;99527.94;4975885;28;20042;-89
2021/03/28 08:24:04;;;;;;;5.68;3.60;;;;;;;19.86;24.41;99527.31;5063025;28;20400;-90
2021/03/28 08:26:59;;;;;;;7.05;5.03;;;;;;;19.59;24.00;99527.59;5064761;28;20044;-90
2021/03/28 08:29:40;;;;;;;4.97;3.85;;;;;;;19.53;25.07;99520.72;5058733;28;20050;-89
2021/03/28 08:32:41;;;;;;;4.93;3.45;;;;;;;19.80;24.30;99530.78;5056198;28;20033;-89
2021/03/28 08:35:10;;;;;;;;;;;;;;;18.04;24.72;99549.84;5065334;28;20109;-86
2021/03/28 08:38:04;;;;;;;5.75;4.07;;;;;;;18.10;24.70;99537.31;5064823;28;19916;-88
2021/03/28 08:40:51;;;;;;;4.88;2.92;;;;;;;19.66;23.16;99538.88;5064044;28;20044;-88
2021/03/28 08:43:53;;;;;;;4.38;3.17;;;;;;;20.10;21.93;99531.72;5060926;28;20064;-89
2021/03/28 08:46:46;;;;;;;7.85;3.35;;;;;;;21.01;21.51;99534.34;5070366;28;20033;-88
2021/03/28 08:49:24;;;;;;;4.13;3.38;;;;;;;20.23;22.31;99541.53;5072462;28;20068;-90
2021/03/28 08:52:21;;;;;;;7.20;3.30;;;;;;;21.16;22.49;99538.97;5071055;28;20064;-88
2021/03/28 08:55:08;;;;;;;6.85;3.85;;;;;;;20.90;21.86;99537.00;5072330;28;20496;-90
2021/03/28 08:57:59;;;;;;;6.32;4.03;;;;;;;20.84;22.58;99538.50;5056204;28;20086;-91
2021/03/28 09:00:42;;;;;;;7.32;3.60;;;;;;;20.44;23.22;99541.88;5083803;28;20017;-92
2021/03/28 09:03:11;;;;;;;6.85;3.95;;;;;;;20.58;22.75;99539.31;5054508;28;20037;-91
2021/03/28 09:05:45;;;;;;;7.15;3.75;;;;;;;20.13;23.39;99539.34;5070357;28;20112;-92
2021/03/28 09:08:23;;;;;;;4.60;3.00;;;;;;;22.65;20.19;99536.53;5063667;28;20041;-92
2021/03/28 09:11:08;;;;;;;5.53;3.63;;;;;;;21.46;20.48;99534.16;5062696;28;20036;-90
2021/03/28 09:13:47;;;;;;;7.47;3.65;;;;;;;22.22;19.83;99529.75;5069187;28;20040;-91
2021/03/28 09:16:54;;;;;;;5.80;3.33;;;;;;;22.52;18.67;99533.22;5055132;28;20434;-90
2021/03/28 09:19:43;;;;;;;5.05;2.97;;;;;;;23.22;18.72;99534.88;4994570;28;20289;-88
2021/03/28 09:22:46;;;;;;;3.65;2.55;;;;;;;23.98;17.54;99536.34;4995364;28;20038;-89
2021/03/28 09:25:25;;;;;;;6.05;2.78;;;;;;;23.33;19.56;99544.13;5031211;28;20515;-88
2021/03/28 09:28:25;;;;;;;3.28;2.30;;;;;;;20.75;20.46;99563.06;5072852;28;20119;-89
2021/03/28 09:31:25;;;;;;;3.35;2.55;;;;;;;19.80;21.73;99553.06;5072807;28;20044;-87
2021/03/28 09:34:10;;;;;;;7.40;3.60;;;;;;;19.70;22.53;99539.72;5082601;28;20055;-88
2021/03/28 09:36:56;;;;;;;6.72;3.30;;;;;;;19.80;21.98;99556.66;5071362;28;20029;-88
2021/03/28 09:39:31;;;;;;;4.05;3.17;;;;;;;20.60;21.86;99555.69;5047831;28;20045;-88
2021/03/28 09:42:28;;;;;;;4.88;3.38;;;;;;;22.69;19.07;99546.56;5069423;28;20063;-88
2021/03/28 09:45:19;;;;;;;4.32;2.85;;;;;;;22.27;19.00;99543.41;5056815;28;20103;-88
2021/03/28 09:48:19;;;;;;;6.00;3.10;;;;;;;20.87;19.74;99540.53;5060552;28;20454;-87
2021/03/28 09:51:10;;;;;;;4.90;3.05;;;;;;;20.64;19.99;99539.78;5015511;28;20390;-88
2021/03/28 09:53:42;;;;;;;3.28;2.13;;;;;;;21.32;19.68;99553.53;5055498;28;20037;-88
2021/03/28 09:56:45;;;;;;;4.07;2.95;;;;;;;23.22;18.51;99551.69;5061309;28;20028;-87
2021/03/28 09:59:33;;;;;;;2.50;2.10;;;;;;;21.73;20.62;99548.81;5060445;28;20395;-90
2021/03/28 10:02:36;;;;;;;5.90;2.67;;;;;;;22.13;19.63;99543.28;5063909;28;20040;-89
2021/03/28 10:05:18;;;;;;;3.22;2.00;;;;;;;22.91;18.46;99541.91;5057397;28;20032;-88
2021/03/28 10:07:54;;;;;;;3.03;2.33;;;;;;;24.17;17.30;99545.59;5061988;28;20043;-89
2021/03/28 10:10:33;;;;;;;4.30;2.35;;;;;;;23.78;18.79;99539.91;5071663;28;20035;-90
2021/03/28 10:13:05;;;;;;;4.18;1.58;;;;;;;23.84;18.01;99546.72;5055492;28;20057;-87
2021/03/28 10:15:40;;;;;;;4.05;2.30;;;;;;;24.15;19.02;99548.81;5068363;28;20428;-91
2021/03/28 10:18:20;;;;;;;4.38;2.70;;;;;;;20.99;18.94;99551.47;5060447;28;20033;-89
2021/03/28 10:21:11;;;;;;;3.80;2.03;;;;;;;21.84;19.55;99549.78;5059495;28;20736;-90
2021/03/28 10:24:15;;;;;;;5.40;1.83;;;;;;;23.90;16.50;99534.72;5059922;28;20392;-89
2021/03/28 10:26:49;;;;;;;4.93;2.25;;;;;;;23.00;18.07;99547.16;5061717;28;20123;-90
2021/03/28 10:29:48;;;;;;;4.03;2.03;;;;;;;21.77;19.34;99538.50;5061397;28;20045;-94
2021/03/28 10:32:36;;;;;;;2.47;1.85;;;;;;;23.12;17.89;99542.03;5067711;28;20392;-94
2021/03/28 10:35:27;;;;;;;5.80;2.08;;;;;;;22.28;19.05;99539.44;5066453;28;20365;-91
2021/03/28 10:38:12;;;;;;;;;;;;;;;21.81;18.60;99536.53;5066105;28;20034;-92
2021/03/28 10:41:05;;;;;;;2.35;1.75;;;;;;;22.04;19.26;99537.19;5068485;28;19928;-94
2021/03/28 10:43:49;;;;;;;3.75;1.98;;;;;;;24.00;17.50;99528.31;5068058;28;20037;-92
2021/03/28 10:46:36;;;;;;;4.38;1.98;;;;;;;25.20;16.00;99528.25;5064412;28;20043;-92
2021/03/28 10:49:30;;;;;;;3.25;1.63;;;;;;;26.64;14.96;99523.75;5054039;28;20083;-94
2021/03/28 10:52:58;;;;;;;4.00;1.33;;;;;;;26.75;14.69;99532.13;5057490;28;20377;-93
2021/03/28 10:55:47;;;;;;;3.53;1.75;;;;;;;25.62;15.95;99520.88;5045818;28;20056;-92
2021/03/28 10:58:13;;;;;;;3.40;1.73;;;;;;;25.97;16.39;99523.47;5062799;28;20079;-94
2021/03/28 11:01:16;;;;;;;4.30;1.50;;;;;;;26.94;14.78;99516.63;5066250;28;20032;-92
2021/03/28 11:04:12;;;;;;;2.03;1.50;;;;;;;25.83;15.42;99532.81;5060040;28;20060;-96
2021/03/28 11:07:06;;;;;;;2.95;1.65;;;;;;;23.76;15.92;99523.47;5045756;28;20527;-92
2021/03/28 11:09:43;;;;;;;2.47;1.30;;;;;;;23.12;17.19;99544.03;5061098;28;20025;-93
2021/03/28 11:12:18;;;;;;;5.13;2.42;;;;;;;23.74;16.31;99533.47;5071183;28;20051;-91
2021/03/28 11:14:50;;;;;;;2.95;1.52;;;;;;;23.51;17.14;99536.63;5078667;28;20123;-92
2021/03/28 11:17:23;;;;;;;2.70;1.50;;;;;;;23.84;17.10;99524.28;5075299;28;20123;-96
2021/03/28 11:20:37;;;;;;;3.65;2.22;;;;;;;24.01;16.53;99545.97;5068298;28;20052;-96
2021/03/28 11:23:23;;;;;;;3.58;1.83;;;;;;;23.38;16.77;99530.56;5012827;28;20649;-93
2021/03/28 11:26:07;;;;;;;3.88;1.60;;;;;;;25.38;15.59;99528.19;5002274;28;20437;-94
2021/03/28 11:29:03;;;;;;;2.72;1.17;;;;;;;26.84;14.58;99523.19;5065520;28;20048;-94
2021/03/28 11:31:35;;;;;;;1.25;1.05;;;;;;;23.76;17.56;99529.06;5078364;28;20024;-94
2021/03/28 11:34:15;;;;;;;2.88;1.60;;;;;;;;;;5083725;28;20047;-94
2021/03/28 11:37:03;;;;;;;2.90;1.40;;;;;;;22.57;17.73;99530.03;5067071;28;20032;-96
2021/03/28 11:39:33;;;;;;;3.83;1.38;;;;;;;23.72;16.49;99514.25;5067383;28;20028;-93
2021/03/28 11:42:15;;;;;;;2.78;2.00;;;;;;;23.05;16.94;99508.38;5081313;28;20036;-95
2021/03/28 11:44:59;;;;;;;4.65;2.10;;;;;;;24.81;15.73;99507.88;5086948;28;20085;-96
2021/03/28 11:47:31;;;;;;;3.25;1.60;;;;;;;26.04;15.89;99498.09;5082783;28;20036;-94
2021/03/28 11:50:03;;;;;;;2.20;1.35;;;;;;;26.83;13.94;99502.66;5083286;28;20032;-93
2021/03/28 11:52:51;;;;;;;2.75;1.30;;;;;;;27.68;13.21;99496.78;5081941;28;20046;-91
2021/03/28 11:55:45;;;;;;;1.50;1.30;;;;;;;26.91;14.41;99495.72;5060244;28;20021;-92
2021/03/28 11:58:16;;;;;;;2.50;1.40;;;;;;;28.03;13.03;99492.66;5083539;28;20062;-92
2021/03/28 12:00:57;;;;;;;1.92;1.20;;;;;;;27.61;13.39;99482.00;5062081;28;20028;-92
2021/03/28 12:03:31;;;;;;;6.68;2.40;;;;;;;26.39;14.13;99494.22;5084352;28;20028;-92
2021/03/28 12:06:03;;;;;;;2.97;2.00;;;;;;;25.11;15.03;99496.19;5075217;28;20037;-92
2021/03/28 12:08:54;;;;;;;1.95;1.73;;;;;;;24.86;15.85;99490.63;5080082;28;20089;-92
2021/03/28 12:11:34;;;;;;;2.25;1.20;;;;;;;25.34;14.98;99491.63;5086098;28;20111;-96
2021/03/28 12:14:14;;;;;;;3.30;1.53;;;;;;;24.57;15.47;99495.47;5090624;28;20566;-94
2021/03/28 12:17:08;;;;;;;2.47;0.95;;;;;;;26.65;14.04;99494.34;5088762;28;20029;-94
2021/03/28 12:19:49;;;;;;;3.92;1.60;;;;;;;25.87;14.73;99482.13;5064429;28;20167;-92
2021/03/28 12:22:20;;;;;;;;;;;;;;;23.91;15.28;99491.44;5079947;28;20473;-94
2021/03/28 12:24:58;;;;;;;1.80;1.40;;;;;;;25.85;13.96;99479.72;5084667;28;20026;-96
2021/03/28 12:27:31;;;;;;;3.65;1.30;;;;;;;25.73;14.43;99483.03;5087604;28;20024;-96
2021/03/28 12:29:58;;;;;;;1.70;1.10;;;;;;;27.62;13.52;99489.22;5091939;28;20081;-96
2021/03/28 12:32:57;;;;;;;3.55;1.38;;;;;;;26.18;14.10;99480.31;5063521;28;20044;-92
2021/03/28 12:35:34;;;;;;;6.32;3.03;;;;;;;25.56;14.92;99495.19;5081470;28;20032;-92
2021/03/28 12:38:27;;;;;;;4.00;2.42;;;;;;;25.50;13.89;99490.41;5085710;28;20031;-92
2021/03/28 12:41:19;;;;;;;2.60;1.90;;;;;;;25.44;14.22;99492.81;5072917;28;20040;-92
2021/03/28 12:44:16;;;;;;;2.40;1.42;;;;;;;26.25;13.98;99486.69;5084666;28;20404;-94
2021/03/28 12:46:56;;;;;;;2.70;1.70;;;;;;;25.05;14.59;99490.16;5080211;28;20492;-92
2021/03/28 12:49:50;;;;;;;1.42;1.00;;;;;;;26.89;14.57;99500.16;5086662;28;20043;-95
2021/03/28 12:52:38;;;;;;;3.40;1.25;;;;;;;26.17;14.40;99482.31;5078325;28;20119;-93
2021/03/28 12:55:07;;;;;;;2.47;1.35;;;;;;;27.30;13.79;99486.81;5065577;28;20035;-94
2021/03/28 12:57:34;;;;;;;2.20;1.13;;;;;;;27.13;14.08;99482.19;5086318;28;20032;-93
2021/03/28 13:00:05;;;;;;;3.53;1.38;;;;;;;27.03;13.77;99481.09;5084991;28;20158;-93
2021/03/28 13:02:34;;;;;;;1.95;1.25;;;;;;;25.61;15.22;99479.88;5068755;28;20036;-91
2021/03/28 13:05:06;;;;;;;3.70;1.45;;;;;;;24.70;15.28;99491.03;5083348;28;20388;-93
2021/03/28 13:07:39;;;;;;;2.00;1.45;;;;;;;23.31;16.52;99484.88;5084039;28;20048;-93